Time;durP1;ratioP1;P1;durP2;ratioP2;P2;SDS_P1;SDS_P2;PMS_P1;PMS_P2;Temp;Humidity;BMP_temperature;BMP_pressure;BME280_temperature;BME280_humidity;BME280_pressure;Samples;Min_cycle;Max_cycle;Signal;HPM_P1;HPM_P2
2024/01/12 00:00:14;;;;;;;34.00;20.00;;;;;;;-1.81;100.00;101423.85;180066;1259;59539;-80
2024/01/12 00:04:37;;;;;;;40.00;21.30;;;;;;;-1.78;100.00;101426.59;179183;1259;44412;-80
2024/01/12 00:08:40;;;;;;;35.60;17.90;;;;;;;-1.76;100.00;101414.22;177456;1259;46177;-80
2024/01/12 00:12:43;;;;;;;23.20;17.60;;;;;;;-1.77;100.00;101420.15;176808;1259;46150;-80
2024/01/12 00:16:48;;;;;;;31.10;19.50;;;;;;;-1.73;100.00;101426.89;178606;1258;46020;-80
2024/01/12 00:20:52;;;;;;;33.00;20.00;;;;;;;-1.69;100.00;101424.58;178310;1261;57963;-79
2024/01/12 00:24:55;;;;;;;40.10;20.40;;;;;;;-1.66;100.00;101423.65;177462;1259;46570;-79
2024/01/12 00:28:58;;;;;;;26.90;15.50;;;;;;;-1.66;100.00;101428.52;178757;1263;45164;-80
2024/01/12 00:33:01;;;;;;;40.80;19.90;;;;;;;-1.68;100.00;101441.95;178619;1263;46066;-80
2024/01/12 00:37:05;;;;;;;34.50;21.40;;;;;;;-1.59;100.00;101443.58;177421;1259;45969;-80
2024/01/12 00:41:08;;;;;;;40.70;26.70;;;;;;;-1.60;100.00;101452.98;178458;1259;60081;-80
2024/01/12 00:45:11;;;;;;;28.30;15.20;;;;;;;-1.56;100.00;101452.77;177135;1260;46008;-80
2024/01/12 00:49:14;;;;;;;28.20;17.30;;;;;;;-1.52;100.00;101455.85;175939;1259;44100;-80
2024/01/12 00:53:17;;;;;;;28.60;16.80;;;;;;;-1.53;100.00;101461.08;177748;1263;45472;-80
2024/01/12 00:57:20;;;;;;;23.60;16.20;;;;;;;-1.47;100.00;101463.77;178924;1259;46534;-80
2024/01/12 01:01:23;;;;;;;23.40;15.40;;;;;;;-1.44;100.00;101462.70;178998;1261;57712;-79
2024/01/12 01:05:26;;;;;;;26.80;17.20;;;;;;;-1.39;100.00;101464.73;180764;1259;44010;-80
2024/01/12 01:09:29;;;;;;;29.60;18.60;;;;;;;-1.40;100.00;101463.52;179148;1259;44348;-80
2024/01/12 01:13:35;;;;;;;30.70;19.30;;;;;;;-1.35;100.00;101463.63;178589;1258;46157;-81
2024/01/12 01:17:39;;;;;;;21.20;14.30;;;;;;;-1.36;100.00;101462.77;177686;1262;46033;-80
2024/01/12 01:21:42;;;;;;;23.90;15.40;;;;;;;-1.35;100.00;101459.81;177978;1259;58958;-80
2024/01/12 01:25:45;;;;;;;30.90;19.40;;;;;;;-1.40;100.00;101458.29;177964;1263;46158;-80
2024/01/12 01:29:48;;;;;;;23.70;14.50;;;;;;;-1.30;100.00;101458.87;178408;1259;44023;-80
2024/01/12 01:33:52;;;;;;;25.00;16.50;;;;;;;-1.31;100.00;101459.92;177921;1259;46000;-80
2024/01/12 01:37:55;;;;;;;32.20;17.00;;;;;;;-1.32;100.00;101457.33;178630;1259;46016;-80
2024/01/12 01:41:59;;;;;;;26.80;15.00;;;;;;;-1.40;100.00;101464.21;177404;1258;57574;-80
2024/01/12 01:46:02;;;;;;;30.70;17.30;;;;;;;-1.41;100.00;101463.19;178881;1259;46030;-80
2024/01/12 01:50:06;;;;;;;30.60;14.10;;;;;;;-1.39;100.00;101462.47;179020;1263;44290;-81
2024/01/12 01:54:10;;;;;;;30.00;16.40;;;;;;;-1.36;100.00;101467.30;177221;1259;46226;-81
2024/01/12 01:58:13;;;;;;;18.10;12.00;;;;;;;-1.33;100.00;101472.48;177733;1260;46144;-80
2024/01/12 02:02:17;;;;;;;24.00;12.40;;;;;;;-1.31;100.00;101470.02;177774;1259;57941;-79
2024/01/12 02:06:21;;;;;;;30.70;20.00;;;;;;;-1.33;100.00;101470.39;177592;1260;46041;-80
2024/01/12 02:10:25;;;;;;;35.00;18.70;;;;;;;-1.26;100.00;101470.30;178245;1260;46005;-80
2024/01/12 02:14:28;;;;;;;37.20;21.00;;;;;;;-1.24;100.00;101468.19;179402;1259;44346;-80
2024/01/12 02:18:31;;;;;;;34.00;18.50;;;;;;;-1.27;100.00;101470.33;180796;1259;44285;-80
2024/01/12 02:22:34;;;;;;;23.80;14.10;;;;;;;-1.27;100.00;101472.58;176841;1263;59272;-81
2024/01/12 02:26:38;;;;;;;23.10;14.60;;;;;;;-1.23;100.00;101471.83;177838;1263;46110;-80
2024/01/12 02:30:42;;;;;;;27.80;17.00;;;;;;;-1.18;100.00;101474.20;178865;1261;43974;-80
2024/01/12 02:34:45;;;;;;;35.00;18.40;;;;;;;-1.14;100.00;101470.66;177327;1264;46106;-80
2024/01/12 02:38:49;;;;;;;31.90;18.20;;;;;;;-1.08;100.00;101473.19;179757;1263;45858;-80
2024/01/12 02:42:53;;;;;;;24.90;18.30;;;;;;;-1.09;100.00;101469.55;177397;1261;59720;-80
2024/01/12 02:46:56;;;;;;;20.10;12.90;;;;;;;-1.08;100.00;101466.91;177571;1262;45985;-81
2024/01/12 02:50:59;;;;;;;20.90;13.00;;;;;;;-1.07;100.00;101467.25;178029;1261;45982;-80
2024/01/12 02:55:03;;;;;;;22.70;17.00;;;;;;;-1.11;100.00;101470.63;177351;1261;46277;-80
2024/01/12 02:59:06;;;;;;;27.20;14.00;;;;;;;-1.09;100.00;101465.54;177566;1263;44428;-80
2024/01/12 03:03:09;;;;;;;29.10;14.10;;;;;;;-1.10;100.00;101456.15;178736;1263;58350;-80
2024/01/12 03:07:13;;;;;;;31.30;17.40;;;;;;;-1.16;100.00;101454.50;178454;1260;46127;-81
2024/01/12 03:11:16;;;;;;;33.10;18.10;;;;;;;-1.06;100.00;101457.48;179032;1262;43970;-81
2024/01/12 03:15:19;;;;;;;26.40;16.10;;;;;;;-0.98;100.00;101456.70;178312;1263;46219;-80
2024/01/12 03:19:22;;;;;;;27.30;14.90;;;;;;;-0.99;100.00;101456.16;178655;1263;45999;-80
2024/01/12 03:23:25;;;;;;;24.60;16.40;;;;;;;-0.99;100.00;101446.43;176859;1261;61422;-80
2024/01/12 03:27:29;;;;;;;32.70;17.60;;;;;;;-1.03;100.00;101449.25;178804;1261;44020;-80
2024/01/12 03:31:33;;;;;;;26.40;14.60;;;;;;;-1.06;100.00;101444.95;177764;1263;46269;-80
2024/01/12 03:35:36;;;;;;;30.10;15.10;;;;;;;-1.00;100.00;101441.73;178440;1261;44101;-80
2024/01/12 03:39:39;;;;;;;28.50;14.70;;;;;;;-1.02;100.00;101445.59;177622;1263;46003;-81
2024/01/12 03:43:42;;;;;;;37.40;21.30;;;;;;;-1.03;100.00;101444.38;177826;1264;57943;-81
2024/01/12 03:47:45;;;;;;;30.70;19.70;;;;;;;-1.01;100.00;101444.88;176793;1263;46048;-81
2024/01/12 03:51:53;;;;;;;29.90;19.70;;;;;;;-0.86;100.00;101441.34;176804;1263;46130;-81
2024/01/12 03:55:57;;;;;;;41.60;20.60;;;;;;;-0.76;100.00;101438.91;178786;1263;45826;-79
2024/01/12 04:00:00;;;;;;;36.40;19.80;;;;;;;-0.65;100.00;101434.38;178880;1263;46107;-81
2024/01/12 04:04:04;;;;;;;34.70;19.40;;;;;;;-0.55;100.00;101431.80;179480;1263;58236;-81
2024/01/12 04:08:07;;;;;;;31.40;19.90;;;;;;;-0.44;100.00;101441.52;179467;1260;45997;-81
2024/01/12 04:12:10;;;;;;;33.90;17.90;;;;;;;-0.43;100.00;101448.31;179923;1261;45810;-81
2024/01/12 04:16:14;;;;;;;37.70;20.70;;;;;;;-0.53;100.00;101454.75;178331;1264;46175;-81
2024/01/12 04:20:17;;;;;;;41.60;18.70;;;;;;;-0.67;100.00;101462.30;177509;1260;46679;-80
2024/01/12 04:24:20;;;;;;;35.70;18.30;;;;;;;-0.80;100.00;101462.85;179110;1263;59353;-81
2024/01/12 04:28:23;;;;;;;35.60;19.00;;;;;;;-0.86;100.00;101465.20;177497;1261;46205;-81
2024/01/12 04:32:26;;;;;;;26.30;15.50;;;;;;;-0.95;100.00;101467.09;179295;1258;44122;-80
2024/01/12 04:36:29;;;;;;;33.50;18.50;;;;;;;-0.97;100.00;101468.15;178636;1263;46397;-80
2024/01/12 04:40:32;;;;;;;37.30;16.10;;;;;;;-0.93;100.00;101466.70;178551;1261;45971;-81
2024/01/12 04:44:36;;;;;;;39.10;22.20;;;;;;;-0.95;100.00;101457.67;179818;1261;59828;-81
2024/01/12 04:48:39;;;;;;;32.30;19.00;;;;;;;-0.94;100.00;101464.27;177877;1261;46099;-81
2024/01/12 04:52:42;;;;;;;44.10;23.70;;;;;;;-0.84;100.00;101464.83;177702;1261;46079;-81
2024/01/12 04:56:45;;;;;;;38.00;19.80;;;;;;;-0.79;100.00;101462.31;177884;1263;44819;-81
2024/01/12 05:00:48;;;;;;;33.40;19.40;;;;;;;-0.76;100.00;101458.79;178875;1257;44168;-81
2024/01/12 05:04:52;;;;;;;40.40;22.00;;;;;;;-0.66;100.00;101453.05;177630;1259;60726;-81
2024/01/12 05:08:55;;;;;;;41.40;23.20;;;;;;;-0.60;100.00;101452.61;177497;1258;46143;-81
2024/01/12 05:13:01;;;;;;;41.30;24.00;;;;;;;-0.53;100.00;101449.36;177775;1260;175372;-82
2024/01/12 05:17:04;;;;;;;28.50;17.80;;;;;;;-0.63;100.00;101454.39;177782;1260;44727;-80
2024/01/12 05:21:07;;;;;;;27.70;14.30;;;;;;;-0.60;100.00;101455.92;178162;1260;46110;-80
2024/01/12 05:25:10;;;;;;;38.00;22.20;;;;;;;-0.67;100.00;101459.50;178275;1259;57903;-81
2024/01/12 05:29:14;;;;;;;35.00;17.80;;;;;;;-0.72;100.00;101466.05;179836;1261;45892;-80
2024/01/12 05:33:18;;;;;;;27.40;16.80;;;;;;;-0.70;100.00;101474.53;178969;1259;44596;-81
2024/01/12 05:37:21;;;;;;;38.70;18.70;;;;;;;-0.69;100.00;101478.19;179431;1260;45995;-81
2024/01/12 05:41:24;;;;;;;33.40;16.80;;;;;;;-0.68;100.00;101480.96;178167;1261;46103;-81
2024/01/12 05:45:28;;;;;;;27.50;15.20;;;;;;;-0.72;100.00;101482.59;179103;1258;58290;-80
2024/01/12 05:49:31;;;;;;;34.20;17.30;;;;;;;-0.72;100.00;101478.59;178047;1263;46210;-81
2024/01/12 05:53:34;;;;;;;26.50;16.10;;;;;;;-0.76;100.00;101481.43;178253;1260;46142;-81
2024/01/12 05:57:37;;;;;;;32.10;18.20;;;;;;;-0.75;100.00;101484.89;176845;1260;46007;-80
2024/01/12 06:01:40;;;;;;;30.90;19.10;;;;;;;-0.73;100.00;101489.73;178413;1261;46156;-80
2024/01/12 06:05:45;;;;;;;26.60;16.20;;;;;;;-0.67;100.00;101477.98;178337;1259;57875;-80
2024/01/12 06:09:49;;;;;;;25.50;16.10;;;;;;;-0.63;100.00;101481.06;177691;1261;46635;-80
2024/01/12 06:13:52;;;;;;;34.50;20.80;;;;;;;-0.68;100.00;101478.70;177380;1260;45977;-80
2024/01/12 06:17:57;;;;;;;26.10;11.80;;;;;;;-0.71;100.00;101484.49;177087;1260;46069;-84
2024/01/12 06:22:00;;;;;;;23.10;15.40;;;;;;;-0.71;100.00;101487.09;178044;1264;46012;-84
2024/01/12 06:26:04;;;;;;;30.40;14.50;;;;;;;-0.64;100.00;101489.27;177955;1261;60473;-83
2024/01/12 06:30:08;;;;;;;19.30;11.70;;;;;;;-0.69;100.00;101490.90;177450;1260;44712;-84
2024/01/12 06:34:11;;;;;;;22.40;15.60;;;;;;;-0.76;100.00;101499.20;178262;1263;46034;-83
2024/01/12 06:38:14;;;;;;;26.60;15.30;;;;;;;-0.87;100.00;101501.11;177713;1259;46053;-83
2024/01/12 06:42:17;;;;;;;19.60;13.10;;;;;;;-0.80;100.00;101500.30;177495;1261;44306;-84
2024/01/12 06:46:21;;;;;;;27.50;11.80;;;;;;;-0.83;100.00;101499.31;177882;1261;57659;-83
2024/01/12 06:50:24;;;;;;;28.50;14.50;;;;;;;-0.87;100.00;101504.05;178142;1261;46224;-84
2024/01/12 06:54:27;;;;;;;26.60;17.20;;;;;;;-0.85;100.00;101508.91;177591;1259;46105;-82
2024/01/12 06:58:30;;;;;;;23.00;14.30;;;;;;;-0.85;100.00;101511.17;178115;1261;46104;-84
2024/01/12 07:02:34;;;;;;;24.60;14.30;;;;;;;-0.85;100.00;101507.34;177627;1258;46121;-83
2024/01/12 07:06:37;;;;;;;24.60;16.40;;;;;;;-0.86;100.00;101509.28;177786;1260;60091;-83
2024/01/12 07:10:41;;;;;;;24.00;14.30;;;;;;;-0.88;100.00;101516.62;178015;1259;46005;-82
2024/01/12 07:14:44;;;;;;;19.30;13.10;;;;;;;-0.85;100.00;101514.48;177716;1258;46093;-84
2024/01/12 07:18:47;;;;;;;17.10;12.60;;;;;;;-0.86;100.00;101510.85;177213;1260;46053;-83
2024/01/12 07:22:51;;;;;;;21.40;13.40;;;;;;;-0.93;100.00;101518.78;178400;1258;46605;-82
2024/01/12 07:26:54;;;;;;;33.60;14.00;;;;;;;-0.94;100.00;101516.86;177674;1260;57831;-84
2024/01/12 07:30:58;;;;;;;26.50;11.40;;;;;;;-0.92;100.00;101515.29;177536;1261;46159;-83
2024/01/12 07:35:01;;;;;;;24.50;13.50;;;;;;;-0.91;100.00;101506.04;178329;1259;45963;-85
2024/01/12 07:39:07;;;;;;;28.90;14.50;;;;;;;-0.87;100.00;101505.46;177879;1259;46060;-84
2024/01/12 07:43:10;;;;;;;25.30;12.00;;;;;;;-0.83;100.00;101505.23;177787;1263;46186;-84
2024/01/12 07:47:14;;;;;;;18.70;12.60;;;;;;;-0.78;100.00;101503.06;177698;1263;58245;-83
2024/01/12 07:51:17;;;;;;;25.30;16.90;;;;;;;-0.77;100.00;101498.87;177794;1259;46396;-82
2024/01/12 07:55:21;;;;;;;29.10;15.20;;;;;;;-0.60;100.00;101485.35;177643;1259;46114;-84
2024/01/12 07:59:24;;;;;;;37.60;19.80;;;;;;;-0.46;100.00;101476.25;177496;1258;46048;-84
2024/01/12 08:03:27;;;;;;;31.60;18.30;;;;;;;-0.39;100.00;101488.86;177522;1260;46018;-84
2024/01/12 08:07:31;;;;;;;18.10;14.10;;;;;;;-0.42;100.00;101488.56;177467;1258;60546;-83
2024/01/12 08:11:34;;;;;;;18.60;10.30;;;;;;;-0.44;100.00;101489.98;177515;1259;46221;-84
2024/01/12 08:15:43;;;;;;;23.60;13.50;;;;;;;-0.48;100.00;101494.94;177635;1261;45973;-81
2024/01/12 08:19:47;;;;;;;29.00;14.50;;;;;;;-0.48;100.00;101488.84;177267;1259;46268;-83
2024/01/12 08:23:50;;;;;;;24.30;12.30;;;;;;;-0.41;100.00;101491.86;177547;1259;46111;-82
2024/01/12 08:27:53;;;;;;;24.10;13.50;;;;;;;-0.46;100.00;101497.52;177903;1259;57923;-84
2024/01/12 08:31:58;;;;;;;28.90;13.50;;;;;;;-0.45;100.00;101494.70;177340;1259;46014;-84
2024/01/12 08:36:02;;;;;;;18.60;11.90;;;;;;;-0.42;100.00;101491.35;177567;1259;46120;-85
2024/01/12 08:40:06;;;;;;;28.50;13.60;;;;;;;-0.44;100.00;101487.02;177442;1258;46094;-84
2024/01/12 08:44:11;;;;;;;22.40;13.30;;;;;;;-0.43;100.00;101488.05;177297;1259;46438;-85
2024/01/12 08:48:14;;;;;;;20.00;10.00;;;;;;;-0.44;100.00;101491.89;177216;1258;57244;-84
2024/01/12 08:52:17;;;;;;;27.90;14.00;;;;;;;-0.50;100.00;101493.05;177622;1261;46113;-83
2024/01/12 08:56:21;;;;;;;35.70;20.10;;;;;;;-0.40;100.00;101489.73;177534;1259;46039;-84
2024/01/12 09:00:24;;;;;;;29.10;13.60;;;;;;;-0.43;100.00;101490.31;177678;1259;46483;-85
2024/01/12 09:04:28;;;;;;;15.40;9.50;;;;;;;-0.46;100.00;101490.71;177280;1259;46006;-85
2024/01/12 09:08:31;;;;;;;23.60;13.70;;;;;;;-0.39;100.00;101484.34;177968;1258;59231;-85
2024/01/12 09:12:35;;;;;;;24.60;14.80;;;;;;;-0.35;100.00;101486.02;178691;1258;46058;-84
2024/01/12 09:16:38;;;;;;;19.60;12.50;;;;;;;-0.32;100.00;101484.55;178287;1258;46451;-85
2024/01/12 09:20:41;;;;;;;22.50;17.00;;;;;;;-0.36;100.00;101482.35;178704;1258;45962;-84
2024/01/12 09:24:45;;;;;;;29.60;13.50;;;;;;;-0.20;100.00;101479.48;178428;1259;46118;-85
2024/01/12 09:28:48;;;;;;;22.70;13.30;;;;;;;-0.29;100.00;101475.61;177745;1259;60202;-84
2024/01/12 09:32:51;;;;;;;16.20;10.00;;;;;;;-0.19;100.00;101469.52;177341;1258;45856;-84
2024/01/12 09:36:55;;;;;;;16.50;12.10;;;;;;;-0.23;100.00;101474.11;177699;1259;45030;-84
2024/01/12 09:40:59;;;;;;;16.20;9.10;;;;;;;-0.19;100.00;101487.12;177818;1259;46120;-84
2024/01/12 09:45:02;;;;;;;18.10;11.00;;;;;;;-0.21;100.00;101488.36;177586;1259;46109;-84
2024/01/12 09:49:11;;;;;;;23.70;15.10;;;;;;;-0.10;100.00;101484.71;177598;1259;59233;-85
2024/01/12 09:53:14;;;;;;;25.80;14.50;;;;;;;-0.07;100.00;101486.38;177800;1259;44458;-84
2024/01/12 09:57:19;;;;;;;20.40;10.80;;;;;;;-0.09;100.00;101486.09;178024;1259;46098;-84
2024/01/12 10:01:23;;;;;;;22.70;14.50;;;;;;;-0.09;100.00;101484.70;177661;1258;46132;-84
2024/01/12 10:05:27;;;;;;;23.10;13.40;;;;;;;-0.09;100.00;101478.05;177422;1259;46092;-84
2024/01/12 10:09:30;;;;;;;25.40;16.90;;;;;;;0.10;100.00;101471.95;178177;1260;58646;-82
2024/01/12 10:13:33;;;;;;;13.50;7.80;;;;;;;0.07;100.00;101467.81;177936;1259;45989;-83
2024/01/12 10:17:37;;;;;;;12.60;8.70;;;;;;;0.04;100.00;101461.08;177662;1263;46073;-83
2024/01/12 10:21:40;;;;;;;17.80;10.00;;;;;;;-0.06;100.00;101473.12;177732;1258;46113;-84
2024/01/12 10:25:44;;;;;;;30.00;9.60;;;;;;;-0.05;100.00;101473.10;177475;1261;46107;-82
2024/01/12 10:29:48;;;;;;;19.40;12.10;;;;;;;-0.05;100.00;101465.61;177290;1259;59267;-84
2024/01/12 10:33:53;;;;;;;17.30;10.40;;;;;;;-0.04;100.00;101461.40;177416;1258;46494;-83
2024/01/12 10:37:58;;;;;;;8.90;7.80;;;;;;;0.03;100.00;101456.56;177393;1259;45977;-83
2024/01/12 10:42:04;;;;;;;21.20;10.80;;;;;;;-0.01;100.00;101461.16;177898;1259;46112;-84
2024/01/12 10:46:16;;;;;;;20.80;9.80;;;;;;;-0.05;100.00;101454.42;177444;1261;46109;-83
2024/01/12 10:50:23;;;;;;;14.00;7.70;;;;;;;0.04;100.00;101449.55;177946;1258;58325;-83
2024/01/12 10:54:33;;;;;;;19.10;12.20;;;;;;;-0.01;100.00;101446.34;177300;1259;46314;-83
2024/01/12 10:58:37;;;;;;;14.30;11.20;;;;;;;0.15;100.00;101430.33;177802;1258;46131;-83
2024/01/12 11:02:41;;;;;;;40.40;26.20;;;;;;;0.32;100.00;101426.50;178365;1258;46096;-83
2024/01/12 11:06:45;;;;;;;21.70;13.90;;;;;;;0.34;100.00;101432.39;177466;1258;46023;-82
2024/01/12 11:10:55;;;;;;;23.10;14.70;;;;;;;0.41;100.00;101430.34;178239;1258;58617;-84
2024/01/12 11:14:59;;;;;;;26.30;17.30;;;;;;;0.49;100.00;101415.52;177357;1258;46458;-84
2024/01/12 11:19:03;;;;;;;26.50;14.60;;;;;;;0.51;100.00;101405.33;177855;1258;45966;-84
2024/01/12 11:23:08;;;;;;;20.40;13.10;;;;;;;0.51;100.00;101391.20;177357;1259;46081;-83
2024/01/12 11:27:14;;;;;;;17.30;8.70;;;;;;;0.51;100.00;101385.77;177786;1259;46023;-81
2024/01/12 11:31:25;;;;;;;27.00;17.90;;;;;;;0.47;100.00;101379.27;177293;1259;60206;-82
2024/01/12 11:35:31;;;;;;;37.30;20.40;;;;;;;0.42;100.00;101370.81;177704;1258;45970;-83
2024/01/12 11:39:39;;;;;;;34.90;17.70;;;;;;;0.43;100.00;101357.86;177730;1258;46094;-84
2024/01/12 11:43:49;;;;;;;24.40;13.50;;;;;;;0.51;100.00;101350.36;177767;1259;46473;-83
2024/01/12 11:47:53;;;;;;;26.30;13.40;;;;;;;0.54;100.00;101344.36;177502;1259;46040;-84
2024/01/12 11:52:04;;;;;;;19.30;10.50;;;;;;;0.57;100.00;101335.38;177484;1258;58401;-83
2024/01/12 11:56:08;;;;;;;26.90;16.60;;;;;;;0.58;100.00;101333.44;177407;1258;46181;-83
2024/01/12 12:00:12;;;;;;;18.90;11.20;;;;;;;0.57;100.00;101320.72;177782;1258;45863;-83
2024/01/12 12:04:18;;;;;;;30.40;14.70;;;;;;;0.54;100.00;101317.46;177820;1258;46021;-82
2024/01/12 12:08:22;;;;;;;19.50;13.80;;;;;;;0.52;100.00;101314.21;177703;1259;46240;-83
2024/01/12 12:12:26;;;;;;;28.20;17.10;;;;;;;0.60;100.00;101306.52;177567;1259;58246;-84
2024/01/12 12:16:30;;;;;;;22.00;12.20;;;;;;;0.64;100.00;101308.16;177526;1259;46123;-85
2024/01/12 12:20:33;;;;;;;21.30;13.80;;;;;;;0.66;100.00;101306.89;177401;1259;46052;-84
2024/01/12 12:24:37;;;;;;;22.30;13.10;;;;;;;0.63;100.00;101306.78;177573;1258;46578;-84
2024/01/12 12:28:45;;;;;;;18.00;10.50;;;;;;;0.52;100.00;101299.89;177482;1259;46086;-84
2024/01/12 12:32:48;;;;;;;20.80;12.40;;;;;;;0.59;100.00;101282.80;177551;1259;59520;-84
2024/01/12 12:36:52;;;;;;;15.10;7.70;;;;;;;0.54;100.00;101280.98;177769;1261;46221;-85
2024/01/12 12:40:55;;;;;;;26.40;14.90;;;;;;;0.50;100.00;101290.14;177400;1258;45898;-83
2024/01/12 12:44:59;;;;;;;21.20;13.00;;;;;;;0.51;100.00;101288.40;177294;1258;45997;-83
2024/01/12 12:49:04;;;;;;;22.90;12.50;;;;;;;0.48;100.00;101280.45;177570;1259;46115;-83
2024/01/12 12:53:07;;;;;;;19.70;10.00;;;;;;;0.48;100.00;101273.10;177248;1259;60071;-81
2024/01/12 12:57:11;;;;;;;19.30;13.10;;;;;;;0.43;100.00;101275.65;177730;1258;46112;-83
2024/01/12 13:01:14;;;;;;;16.00;8.80;;;;;;;0.52;100.00;101260.96;178025;1258;46002;-82
2024/01/12 13:05:21;;;;;;;20.40;13.80;;;;;;;0.49;100.00;101252.83;177927;1258;46053;-83
2024/01/12 13:09:26;;;;;;;18.30;11.00;;;;;;;0.51;100.00;101248.08;177500;1259;45999;-83
2024/01/12 13:13:29;;;;;;;14.10;11.70;;;;;;;0.46;100.00;101241.91;177712;1258;60058;-83
2024/01/12 13:17:32;;;;;;;21.60;11.40;;;;;;;0.54;100.00;101243.45;177488;1260;46104;-83
2024/01/12 13:21:36;;;;;;;18.20;10.10;;;;;;;0.57;100.00;101238.16;177715;1259;46128;-83
2024/01/12 13:25:39;;;;;;;18.60;8.60;;;;;;;0.58;100.00;101229.23;177535;1258;46086;-83
2024/01/12 13:29:42;;;;;;;28.60;11.40;;;;;;;0.62;100.00;101226.86;177357;1263;46137;-83
2024/01/12 13:33:45;;;;;;;13.60;9.30;;;;;;;0.57;100.00;101228.02;177521;1259;60292;-82
2024/01/12 13:37:49;;;;;;;19.30;9.10;;;;;;;0.60;100.00;101224.98;177575;1258;46148;-84
2024/01/12 13:41:52;;;;;;;13.30;8.50;;;;;;;0.56;100.00;101233.81;177239;1259;46017;-84
2024/01/12 13:45:55;;;;;;;10.60;7.40;;;;;;;0.55;100.00;101224.59;177638;1263;45980;-83
2024/01/12 13:49:58;;;;;;;8.00;6.10;;;;;;;0.50;100.00;101221.91;177745;1263;45992;-84
2024/01/12 13:54:04;;;;;;;13.70;9.60;;;;;;;0.51;100.00;101225.21;177642;1258;59742;-84
2024/01/12 13:58:08;;;;;;;12.40;8.50;;;;;;;0.67;100.00;101213.80;177622;1259;46006;-83
2024/01/12 14:02:11;;;;;;;10.70;7.10;;;;;;;0.72;100.00;101211.40;177413;1259;46294;-83
2024/01/12 14:06:15;;;;;;;9.40;5.50;;;;;;;0.57;100.00;101209.68;177856;1259;46147;-84
2024/01/12 14:10:18;;;;;;;9.60;4.90;;;;;;;0.54;100.00;101215.02;177878;1259;46303;-85
2024/01/12 14:14:22;;;;;;;13.10;7.10;;;;;;;0.54;100.00;101212.04;177637;1258;58259;-83
2024/01/12 14:18:25;;;;;;;19.30;8.50;;;;;;;0.56;100.00;101204.12;177289;1259;46089;-84
2024/01/12 14:22:29;;;;;;;17.30;9.70;;;;;;;0.58;100.00;101201.28;177774;1259;45972;-84
2024/01/12 14:26:32;;;;;;;15.20;10.30;;;;;;;0.60;100.00;101187.81;178810;1258;44222;-84
2024/01/12 14:30:35;;;;;;;22.30;9.90;;;;;;;0.61;100.00;101191.27;179544;1259;46095;-82
2024/01/12 14:34:38;;;;;;;10.30;7.70;;;;;;;0.65;100.00;101196.23;178433;1259;59562;-82
2024/01/12 14:38:42;;;;;;;17.50;10.90;;;;;;;0.64;100.00;101193.28;177593;1259;46271;-83
2024/01/12 14:42:46;;;;;;;12.10;8.80;;;;;;;0.75;100.00;101193.88;177486;1259;45538;-83
2024/01/12 14:46:49;;;;;;;10.40;6.30;;;;;;;0.82;100.00;101190.56;177656;1263;46142;-83
2024/01/12 14:50:54;;;;;;;8.20;7.00;;;;;;;0.78;100.00;101185.76;178049;1259;46107;-84
2024/01/12 14:54:58;;;;;;;6.60;4.90;;;;;;;0.68;99.33;101181.84;177345;1259;58361;-82
2024/01/12 14:59:03;;;;;;;6.60;5.10;;;;;;;0.68;99.47;101190.40;177533;1259;46017;-85
2024/01/12 15:03:06;;;;;;;9.10;5.30;;;;;;;0.58;99.25;101177.90;177219;1259;46123;-87
2024/01/12 15:07:11;;;;;;;8.90;6.50;;;;;;;0.51;99.95;101192.41;177388;1259;46004;-87
2024/01/12 15:11:14;;;;;;;7.80;6.50;;;;;;;0.39;100.00;101198.79;178050;1259;46180;-86
2024/01/12 15:15:18;;;;;;;9.50;6.70;;;;;;;0.34;100.00;101194.89;178126;1262;57228;-84
2024/01/12 15:19:23;;;;;;;7.40;6.40;;;;;;;0.49;100.00;101195.91;177785;1259;45971;-85
2024/01/12 15:23:27;;;;;;;10.30;5.40;;;;;;;0.54;100.00;101190.05;176945;1259;46217;-85
2024/01/12 15:27:31;;;;;;;8.10;6.50;;;;;;;0.49;99.80;101187.91;177476;1259;45982;-84
2024/01/12 15:31:34;;;;;;;11.10;6.00;;;;;;;0.45;99.69;101180.15;178170;1258;44408;-85
2024/01/12 15:35:37;;;;;;;8.00;5.90;;;;;;;0.48;99.99;101184.61;177191;1263;58319;-83
2024/01/12 15:39:42;;;;;;;10.40;7.30;;;;;;;0.52;100.00;101176.47;177691;1259;45958;-85
2024/01/12 15:43:46;;;;;;;9.60;7.00;;;;;;;0.47;100.00;101177.83;178565;1259;44912;-81
2024/01/12 15:47:49;;;;;;;10.80;6.50;;;;;;;0.45;99.85;101169.16;178526;1259;46088;-83
2024/01/12 15:51:52;;;;;;;13.00;7.90;;;;;;;0.49;100.00;101173.23;178125;1259;46127;-82
2024/01/12 15:55:55;;;;;;;8.40;5.80;;;;;;;0.50;99.99;101169.73;177778;1259;59398;-81
2024/01/12 16:00:17;;;;;;;8.20;5.90;;;;;;;0.47;99.82;101161.27;179040;1259;46004;-82
2024/01/12 16:05:00;;;;;;;8.20;6.00;;;;;;;0.51;99.81;101159.59;179034;1259;44269;-82
2024/01/12 16:09:03;;;;;;;9.20;6.80;;;;;;;0.45;99.87;101168.27;177990;1263;45262;-82
2024/01/12 16:13:06;;;;;;;8.50;6.80;;;;;;;0.30;100.00;101166.56;178778;1259;46397;-79
2024/01/12 16:17:10;;;;;;;12.40;8.60;;;;;;;0.29;100.00;101150.86;177933;1258;58266;-81
2024/01/12 16:21:31;;;;;;;14.70;8.20;;;;;;;0.15;100.00;101152.08;179169;1259;45971;-82
2024/01/12 16:25:34;;;;;;;14.10;6.40;;;;;;;0.19;100.00;101140.49;178834;1259;46132;-81
2024/01/12 16:29:38;;;;;;;11.80;8.20;;;;;;;0.19;100.00;101142.05;179094;1259;44304;-82
2024/01/12 16:33:41;;;;;;;11.40;7.60;;;;;;;0.34;100.00;101135.75;179317;1260;46206;-83
2024/01/12 16:37:44;;;;;;;10.90;7.60;;;;;;;0.42;100.00;101136.77;178859;1259;57715;-81
2024/01/12 16:41:48;;;;;;;12.40;9.30;;;;;;;0.36;100.00;101129.22;178872;1259;44221;-81
2024/01/12 16:45:52;;;;;;;12.70;8.50;;;;;;;0.29;100.00;101114.56;178066;1259;44029;-82
2024/01/12 16:49:55;;;;;;;12.10;7.10;;;;;;;0.24;100.00;101110.20;179436;1259;46012;-81
2024/01/12 16:53:59;;;;;;;13.60;8.40;;;;;;;0.17;100.00;101095.16;179859;1259;46206;-81
2024/01/12 16:58:02;;;;;;;11.70;8.90;;;;;;;0.27;100.00;101096.50;178427;1259;58753;-81
2024/01/12 17:02:05;;;;;;;10.60;8.50;;;;;;;0.32;100.00;101107.54;178620;1259;46005;-81
2024/01/12 17:06:08;;;;;;;14.80;9.50;;;;;;;0.34;100.00;101134.89;179061;1259;44112;-81
2024/01/12 17:10:12;;;;;;;12.80;8.40;;;;;;;0.31;100.00;101139.82;179327;1258;44076;-81
2024/01/12 17:14:15;;;;;;;14.80;9.50;;;;;;;0.25;100.00;101138.41;178930;1258;207956;-82
2024/01/12 17:18:19;;;;;;;15.50;9.10;;;;;;;0.19;100.00;101124.61;179360;1259;59496;-81
2024/01/12 17:22:34;;;;;;;9.60;6.50;;;;;;;0.25;100.00;101108.58;178365;1262;45047;-82
2024/01/12 17:26:38;;;;;;;10.60;7.00;;;;;;;0.15;100.00;101114.77;178952;1259;46116;-82
2024/01/12 17:30:41;;;;;;;8.60;6.80;;;;;;;0.16;100.00;101117.71;178689;1258;46039;-81
2024/01/12 17:34:46;;;;;;;9.70;6.50;;;;;;;0.17;100.00;101107.04;179028;1259;46425;-82
2024/01/12 17:38:50;;;;;;;13.10;7.20;;;;;;;0.16;100.00;101098.52;178824;1259;57532;-81
2024/01/12 17:42:53;;;;;;;14.00;8.00;;;;;;;0.23;100.00;101103.59;179500;1259;44146;-80
2024/01/12 17:46:56;;;;;;;13.10;8.60;;;;;;;0.27;100.00;101094.57;177838;1259;46088;-81
2024/01/12 17:50:59;;;;;;;12.30;9.30;;;;;;;0.31;100.00;101092.02;179037;1259;45969;-81
2024/01/12 17:55:03;;;;;;;16.90;9.60;;;;;;;0.32;100.00;101095.47;177939;1258;46056;-81
2024/01/12 17:59:09;;;;;;;10.50;7.20;;;;;;;0.28;100.00;101105.72;179239;1259;59547;-81
2024/01/12 18:03:12;;;;;;;14.80;9.50;;;;;;;0.35;100.00;101116.17;178995;1260;46237;-81
2024/01/12 18:07:16;;;;;;;11.90;9.00;;;;;;;0.34;100.00;101107.11;178121;1259;46009;-81
2024/01/12 18:11:20;;;;;;;14.40;8.90;;;;;;;0.37;100.00;101101.98;178946;1259;45942;-82